Time;durP1;ratioP1;P1;durP2;ratioP2;P2;SDS_P1;SDS_P2;PMS_P1;PMS_P2;Temp;Humidity;BMP_temperature;BMP_pressure;BME280_temperature;BME280_humidity;BME280_pressure;Samples;Min_cycle;Max_cycle;Signal;HPM_P1;HPM_P2
2023/06/04 00:02:10;;;;;;;2.67;1.70;;;;;;;16.12;54.84;99297.00;5023194;28;20724;-78
2023/06/04 00:04:39;;;;;;;3.20;1.60;;;;;;;15.74;56.98;99293.06;5030971;28;20260;-78
2023/06/04 00:07:08;;;;;;;3.23;1.80;;;;;;;15.97;56.44;99291.13;5027336;28;20226;-78
2023/06/04 00:09:38;;;;;;;5.60;1.90;;;;;;;15.88;56.92;99285.72;5025065;28;20224;-77
2023/06/04 00:12:07;;;;;;;2.77;1.80;;;;;;;15.84;57.00;99285.13;5020795;28;20228;-77
2023/06/04 00:14:35;;;;;;;2.73;1.67;;;;;;;15.80;57.16;99281.00;5026667;28;20642;-78
2023/06/04 00:17:04;;;;;;;4.17;1.60;;;;;;;15.49;58.66;99284.50;5029166;28;20368;-77
2023/06/04 00:19:33;;;;;;;1.93;1.73;;;;;;;15.49;60.12;99273.81;5025353;28;20214;-78
2023/06/04 00:22:02;;;;;;;3.30;1.70;;;;;;;15.40;61.56;99283.41;5028648;28;20287;-77
2023/06/04 00:24:31;;;;;;;3.23;1.60;;;;;;;15.02;65.31;99279.38;5024233;28;20192;-78
2023/06/04 00:27:00;;;;;;;2.03;1.67;;;;;;;15.00;67.22;99273.31;5027992;28;20704;-78
2023/06/04 00:29:29;;;;;;;3.13;1.90;;;;;;;15.12;67.73;99274.13;5026227;28;20230;-77
2023/06/04 00:31:58;;;;;;;3.97;1.70;;;;;;;14.84;69.43;99279.03;5024487;28;20209;-78
2023/06/04 00:34:26;;;;;;;2.80;1.97;;;;;;;14.99;68.76;99284.13;5024597;28;20206;-77
2023/06/04 00:36:54;;;;;;;2.97;1.80;;;;;;;15.15;68.52;99287.22;5025089;28;20198;-78
2023/06/04 00:39:22;;;;;;;3.87;1.97;;;;;;;14.87;69.50;99280.63;5025508;28;20206;-77
2023/06/04 00:41:50;;;;;;;3.10;1.80;;;;;;;14.79;70.08;99281.22;5025889;28;20204;-78
2023/06/04 00:44:24;;;;;;;4.10;1.80;;;;;;;14.70;71.74;99275.75;4967821;28;20203;-78
2023/06/04 00:46:54;;;;;;;5.13;2.00;;;;;;;14.43;73.54;99284.06;4962400;28;20196;-78
2023/06/04 00:49:23;;;;;;;3.60;1.87;;;;;;;14.37;75.57;99293.38;4967839;28;20224;-78
2023/06/04 00:51:52;;;;;;;2.87;1.97;;;;;;;14.46;75.60;99287.38;4963386;28;20223;-77
2023/06/04 00:54:22;;;;;;;2.47;1.77;;;;;;;14.48;75.06;99290.78;4964652;28;20201;-77
2023/06/04 00:56:50;;;;;;;2.83;1.83;;;;;;;14.44;75.13;99288.44;4966294;28;20203;-77
2023/06/04 00:59:20;;;;;;;3.63;2.20;;;;;;;14.44;74.78;99288.44;4965125;28;20200;-77
2023/06/04 01:01:55;;;;;;;6.33;1.87;;;;;;;14.38;75.57;99289.78;4979145;28;20213;-77
2023/06/04 01:04:28;;;;;;;3.60;1.77;;;;;;;14.35;75.76;99294.47;5026985;28;20276;-77
2023/06/04 01:06:59;;;;;;;5.03;1.90;;;;;;;14.24;76.38;99295.31;5027770;28;20217;-77
2023/06/04 01:09:28;;;;;;;3.07;1.60;;;;;;;14.13;76.86;99300.59;5027149;28;20296;-77
2023/06/04 01:11:58;;;;;;;5.13;1.90;;;;;;;14.14;78.06;99297.81;5026943;28;20254;-77
2023/06/04 01:14:29;;;;;;;2.03;1.63;;;;;;;14.12;78.03;99289.09;5029957;28;20189;-77
2023/06/04 01:17:04;;;;;;;3.93;2.00;;;;;;;14.29;77.44;99287.81;5021452;28;20201;-77
2023/06/04 01:20:05;;;;;;;2.67;1.77;;;;;;;14.24;77.68;99295.31;5027315;28;20247;-78
2023/06/04 01:22:40;;;;;;;2.70;1.80;;;;;;;14.04;78.01;99291.50;5015436;28;20194;-77
2023/06/04 01:25:18;;;;;;;4.60;1.77;;;;;;;14.10;77.79;99290.19;5024691;28;20197;-78
2023/06/04 01:27:52;;;;;;;2.67;1.77;;;;;;;14.34;77.37;99288.28;5027313;28;20240;-77
2023/06/04 01:30:26;;;;;;;3.83;2.00;;;;;;;14.26;77.31;99290.69;5026907;28;20236;-77
2023/06/04 01:32:55;;;;;;;4.07;1.90;;;;;;;14.15;78.26;99286.19;5026135;28;20192;-78
2023/06/04 01:35:25;;;;;;;3.87;1.90;;;;;;;14.18;78.57;99287.78;5028399;28;20201;-77
2023/06/04 01:37:56;;;;;;;5.07;1.80;;;;;;;13.97;80.11;99279.59;5024868;28;20205;-79
2023/06/04 01:40:26;;;;;;;4.13;1.90;;;;;;;13.55;83.44;99284.53;5026928;28;20225;-77
2023/06/04 01:42:55;;;;;;;3.53;1.93;;;;;;;13.77;84.01;99288.25;5029303;28;20228;-77
2023/06/04 01:45:26;;;;;;;3.60;2.07;;;;;;;13.61;85.63;99294.75;5025312;28;20204;-77
2023/06/04 01:47:55;;;;;;;4.87;2.10;;;;;;;13.55;86.82;99289.88;5028671;28;20193;-77
2023/06/04 01:50:24;;;;;;;4.03;2.00;;;;;;;13.55;87.03;99289.00;5023835;28;20276;-77
2023/06/04 01:52:53;;;;;;;3.63;1.90;;;;;;;13.64;87.08;99283.00;5026244;28;20201;-77
2023/06/04 01:55:22;;;;;;;4.73;1.90;;;;;;;13.46;88.25;99291.38;5026727;28;20202;-77
2023/06/04 01:57:50;;;;;;;3.80;1.70;;;;;;;13.48;89.18;99288.59;4972422;28;20200;-77
2023/06/04 02:00:19;;;;;;;3.37;1.70;;;;;;;13.46;88.68;99282.56;4958312;28;20196;-77
2023/06/04 02:02:49;;;;;;;3.53;2.10;;;;;;;13.63;87.50;99281.31;4962574;28;20207;-77
2023/06/04 02:05:18;;;;;;;4.37;1.80;;;;;;;13.65;85.07;99274.06;4972199;28;20188;-77
2023/06/04 02:07:47;;;;;;;3.90;2.10;;;;;;;13.58;85.36;99289.63;4971963;28;20200;-77
2023/06/04 02:10:18;;;;;;;2.60;1.87;;;;;;;13.42;85.74;99294.41;4892951;29;20226;-77
2023/06/04 02:13:06;;;;;;;6.13;2.20;;;;;;;13.27;86.04;99292.84;4895100;29;20293;-77
2023/06/04 02:15:34;;;;;;;2.93;1.80;;;;;;;13.32;85.19;99293.38;4910272;29;20208;-77
2023/06/04 02:18:16;;;;;;;5.30;2.00;;;;;;;13.40;86.10;99297.16;4952555;28;20200;-77
2023/06/04 02:20:46;;;;;;;6.17;2.17;;;;;;;13.44;84.76;99292.47;4952483;28;20241;-77
2023/06/04 02:23:17;;;;;;;3.27;1.80;;;;;;;13.35;85.11;99290.50;4950057;28;20196;-77
2023/06/04 02:25:47;;;;;;;2.10;1.70;;;;;;;13.42;84.26;99297.91;4948517;28;20188;-77
2023/06/04 02:28:17;;;;;;;3.30;1.90;;;;;;;13.22;86.11;99294.97;4951108;28;20200;-77
2023/06/04 02:30:47;;;;;;;5.17;1.87;;;;;;;13.15;87.69;99303.41;4949193;28;20280;-77
2023/06/04 02:33:17;;;;;;;2.80;1.97;;;;;;;13.30;87.16;99298.78;4949805;28;20201;-77
2023/06/04 02:35:46;;;;;;;4.13;1.87;;;;;;;13.18;87.03;99299.66;5018746;28;20190;-78
2023/06/04 02:38:16;;;;;;;3.97;2.00;;;;;;;13.15;87.04;99297.22;5027917;28;20193;-77
2023/06/04 02:40:45;;;;;;;4.10;2.20;;;;;;;12.81;90.01;99304.09;5022832;28;20200;-77
2023/06/04 02:43:13;;;;;;;3.53;1.70;;;;;;;12.96;89.91;99304.81;4998134;28;20277;-78
2023/06/04 02:45:42;;;;;;;4.50;2.10;;;;;;;12.93;90.17;99302.38;5020122;28;20225;-77
2023/06/04 02:48:10;;;;;;;2.80;2.03;;;;;;;12.99;89.22;99297.47;5027735;28;20312;-77
2023/06/04 02:50:42;;;;;;;4.43;1.80;;;;;;;13.04;88.50;99305.97;5024163;28;20264;-77
2023/06/04 02:53:11;;;;;;;2.43;1.87;;;;;;;13.09;88.42;99303.81;5025409;28;20221;-77
2023/06/04 02:55:39;;;;;;;5.00;1.90;;;;;;;13.18;88.54;99300.50;5025793;28;20197;-77
2023/06/04 02:58:08;;;;;;;3.80;1.77;;;;;;;13.13;88.46;99302.66;5024040;28;20206;-77
2023/06/04 03:00:37;;;;;;;3.50;1.83;;;;;;;12.99;89.53;99304.59;5030217;28;20194;-77
2023/06/04 03:03:05;;;;;;;3.33;2.07;;;;;;;13.07;89.18;99304.91;5034588;28;20204;-78
2023/06/04 03:05:33;;;;;;;3.57;1.90;;;;;;;13.11;88.44;99301.06;5029056;28;20248;-77
2023/06/04 03:08:04;;;;;;;5.53;2.00;;;;;;;12.91;90.08;99313.13;5025595;28;20377;-77
2023/06/04 03:10:33;;;;;;;6.10;1.70;;;;;;;13.00;90.51;99309.81;5031880;28;20221;-77
2023/06/04 03:13:07;;;;;;;5.60;2.07;;;;;;;12.99;90.78;99309.91;5024553;28;20213;-77
2023/06/04 03:15:39;;;;;;;4.80;1.67;;;;;;;12.87;91.78;99307.19;5024058;28;20255;-77
2023/06/04 03:18:07;;;;;;;4.80;1.97;;;;;;;12.80;92.45;99310.38;5024208;28;20194;-77
2023/06/04 03:20:38;;;;;;;3.10;1.80;;;;;;;12.72;93.40;99307.41;5027481;28;20225;-77
2023/06/04 03:23:08;;;;;;;4.00;2.20;;;;;;;12.87;92.71;99312.50;5028092;28;20197;-77
2023/06/04 03:25:36;;;;;;;3.10;2.13;;;;;;;12.99;92.22;99309.91;5025942;28;20206;-77
2023/06/04 03:28:05;;;;;;;3.37;1.60;;;;;;;13.00;92.14;99307.13;5029515;28;20194;-77
2023/06/04 03:30:33;;;;;;;2.17;1.77;;;;;;;13.01;91.40;99314.16;5032637;28;20225;-77
2023/06/04 03:33:02;;;;;;;6.30;1.83;;;;;;;12.81;92.01;99312.91;5028465;28;20204;-78
2023/06/04 03:35:31;;;;;;;3.67;1.73;;;;;;;13.06;91.18;99308.53;5027804;28;20197;-77
2023/06/04 03:38:01;;;;;;;3.53;1.90;;;;;;;12.91;90.69;99305.13;5021626;28;20198;-77
2023/06/04 03:40:31;;;;;;;5.60;2.20;;;;;;;12.81;90.37;99317.38;5027516;28;20204;-77
2023/06/04 03:43:00;;;;;;;3.43;1.83;;;;;;;12.86;90.38;99302.81;5030955;28;20198;-78
2023/06/04 03:45:29;;;;;;;2.80;1.77;;;;;;;12.90;90.47;99308.75;5022084;28;20361;-77
2023/06/04 03:47:59;;;;;;;6.73;1.73;;;;;;;12.85;90.68;99308.25;5023116;28;20197;-77
2023/06/04 03:50:29;;;;;;;2.83;1.90;;;;;;;12.99;90.26;99305.44;4949235;29;20228;-77
2023/06/04 03:52:58;;;;;;;5.30;2.23;;;;;;;13.08;89.76;99312.75;4948507;29;20208;-77
2023/06/04 03:55:26;;;;;;;3.77;1.90;;;;;;;13.09;89.23;99305.63;4943256;28;20216;-77
2023/06/04 03:57:56;;;;;;;3.93;1.90;;;;;;;13.20;87.56;99310.22;4948833;29;20653;-77
2023/06/04 04:00:28;;;;;;;3.83;1.60;;;;;;;13.31;87.24;99307.63;4948387;29;20197;-77
2023/06/04 04:02:56;;;;;;;6.60;2.03;;;;;;;13.04;88.30;99308.63;4946019;29;20207;-78
2023/06/04 04:05:25;;;;;;;2.93;1.60;;;;;;;13.14;88.65;99306.16;4953012;29;20195;-78
2023/06/04 04:07:53;;;;;;;4.37;1.80;;;;;;;13.10;89.74;99313.50;4963538;28;20277;-78
2023/06/04 04:10:22;;;;;;;2.17;1.90;;;;;;;13.10;89.96;99308.19;5027818;28;20214;-77
2023/06/04 04:12:54;;;;;;;4.87;1.80;;;;;;;13.10;89.95;99307.34;5025603;28;20238;-77
2023/06/04 04:15:25;;;;;;;3.50;1.87;;;;;;;13.02;90.64;99312.34;5025075;28;20256;-77
2023/06/04 04:17:53;;;;;;;6.80;1.93;;;;;;;12.95;91.54;99319.09;5027727;28;20216;-77
2023/06/04 04:20:22;;;;;;;2.10;1.70;;;;;;;13.13;90.74;99309.78;5023455;28;20197;-77
2023/06/04 04:22:51;;;;;;;2.73;1.80;;;;;;;13.07;89.54;99316.38;5030173;28;20193;-77
2023/06/04 04:25:19;;;;;;;2.33;1.67;;;;;;;13.04;90.43;99319.28;5025105;28;20189;-77
2023/06/04 04:27:48;;;;;;;3.17;1.93;;;;;;;13.11;90.79;99315.19;5020692;28;20264;-77
2023/06/04 04:30:20;;;;;;;3.37;1.87;;;;;;;12.84;91.39;99318.03;5031668;28;20366;-77
2023/06/04 04:32:50;;;;;;;3.60;1.50;;;;;;;12.96;93.53;99318.97;5032897;28;20198;-77
2023/06/04 04:35:19;;;;;;;3.70;1.87;;;;;;;12.90;94.93;99314.91;5029687;28;20197;-77
2023/06/04 04:37:47;;;;;;;4.87;1.97;;;;;;;12.85;96.24;99319.72;5023950;28;20242;-77
2023/06/04 04:40:16;;;;;;;3.63;1.87;;;;;;;13.18;95.85;99312.94;5020278;28;20212;-77
2023/06/04 04:42:44;;;;;;;3.03;1.90;;;;;;;12.89;96.86;99320.34;5026209;28;20200;-77
2023/06/04 04:45:13;;;;;;;5.10;2.00;;;;;;;13.11;97.68;99315.19;5022888;28;20202;-76
2023/06/04 04:47:41;;;;;;;2.77;1.80;;;;;;;13.10;97.65;99317.97;5025186;28;20201;-77
2023/06/04 04:50:11;;;;;;;5.10;2.00;;;;;;;12.87;100.00;99319.63;5027090;28;20209;-76
2023/06/04 04:52:40;;;;;;;3.00;1.90;;;;;;;12.99;100.00;99320.56;5029767;28;20224;-76
2023/06/04 04:55:11;;;;;;;3.90;1.70;;;;;;;12.91;100.00;99321.09;5023512;28;20231;-77
2023/06/04 04:57:40;;;;;;;6.70;1.90;;;;;;;13.01;100.00;99326.59;5027143;28;20205;-77
2023/06/04 05:00:09;;;;;;;3.60;1.80;;;;;;;13.05;100.00;99323.63;5025785;28;20205;-76
2023/06/04 05:02:38;;;;;;;8.93;2.17;;;;;;;13.21;100.00;99326.06;5025080;28;20216;-77
2023/06/04 05:05:07;;;;;;;4.47;2.53;;;;;;;13.27;99.71;99328.28;5023071;28;20193;-76
2023/06/04 05:07:37;;;;;;;2.43;1.70;;;;;;;13.35;99.49;99328.59;5026136;28;20221;-77
2023/06/04 05:10:06;;;;;;;3.07;1.80;;;;;;;13.43;100.00;99328.88;5020769;28;20633;-77
2023/06/04 05:12:34;;;;;;;2.63;1.90;;;;;;;13.57;99.00;99324.34;5026273;28;20218;-77
2023/06/04 05:15:03;;;;;;;5.63;2.30;;;;;;;13.68;96.20;99335.88;5024485;28;20649;-76
2023/06/04 05:17:33;;;;;;;3.93;2.07;;;;;;;13.53;96.59;99333.53;5021462;28;20204;-76
2023/06/04 05:20:04;;;;;;;4.40;1.87;;;;;;;13.70;94.82;99328.66;5029300;28;20198;-76
2023/06/04 05:22:33;;;;;;;5.67;2.00;;;;;;;13.84;97.59;99337.44;5024986;28;20209;-77
2023/06/04 05:25:03;;;;;;;3.40;2.00;;;;;;;13.64;96.64;99341.56;5023519;28;20190;-77
2023/06/04 05:27:32;;;;;;;4.77;1.97;;;;;;;13.98;95.59;99343.41;5029305;28;20253;-77
2023/06/04 05:30:02;;;;;;;5.30;1.90;;;;;;;14.02;94.26;99341.38;5025935;28;20208;-77
2023/06/04 05:32:32;;;;;;;4.80;1.70;;;;;;;14.09;92.16;99337.28;5024664;28;20299;-77
2023/06/04 05:35:04;;;;;;;2.80;1.60;;;;;;;14.23;89.78;99338.91;5026792;28;20209;-77
2023/06/04 05:37:34;;;;;;;4.77;1.90;;;;;;;14.16;90.16;99346.50;5026492;28;20216;-77
2023/06/04 05:40:05;;;;;;;5.47;2.23;;;;;;;14.13;89.74;99344.06;5028915;28;20308;-77
2023/06/04 05:42:34;;;;;;;4.17;1.90;;;;;;;14.41;89.69;99341.97;5015448;28;20201;-77
2023/06/04 05:45:02;;;;;;;5.67;1.87;;;;;;;14.51;87.01;99357.19;5030458;28;20198;-77
2023/06/04 05:47:31;;;;;;;3.40;1.77;;;;;;;14.50;86.22;99350.16;5026933;28;20185;-77
2023/06/04 05:50:01;;;;;;;6.07;2.03;;;;;;;14.54;85.36;99348.09;4972224;28;20223;-77
2023/06/04 05:52:30;;;;;;;4.20;2.00;;;;;;;14.69;84.51;99349.56;4972283;28;20239;-77
2023/06/04 05:54:59;;;;;;;4.30;2.10;;;;;;;14.80;85.31;99357.56;4969138;28;20227;-77
2023/06/04 05:57:29;;;;;;;3.87;1.90;;;;;;;15.04;83.30;99354.78;4969603;28;20282;-77
2023/06/04 05:59:57;;;;;;;4.93;1.70;;;;;;;14.94;82.49;99356.47;4972428;28;20650;-77
2023/06/04 06:02:26;;;;;;;4.00;1.90;;;;;;;14.97;80.64;99353.59;4970829;28;20207;-77
2023/06/04 06:04:56;;;;;;;3.30;1.90;;;;;;;15.18;80.73;99359.88;4969639;28;20199;-77
2023/06/04 06:07:24;;;;;;;5.90;1.97;;;;;;;15.34;77.63;99359.50;4975764;28;20204;-77
2023/06/04 06:09:53;;;;;;;2.57;1.90;;;;;;;15.41;79.05;99359.84;5031305;28;20366;-77
2023/06/04 06:12:21;;;;;;;2.50;1.77;;;;;;;15.45;74.83;99358.66;5025150;28;20223;-77
2023/06/04 06:14:51;;;;;;;2.50;1.80;;;;;;;15.57;77.69;99359.47;5030077;28;20640;-77
2023/06/04 06:17:20;;;;;;;3.63;1.80;;;;;;;15.58;73.32;99359.34;5027087;28;20248;-77
2023/06/04 06:19:48;;;;;;;5.20;1.80;;;;;;;15.66;73.84;99364.09;5032462;28;20232;-76
2023/06/04 06:22:16;;;;;;;2.70;1.90;;;;;;;15.90;74.01;99366.56;4951554;29;20200;-77
2023/06/04 06:24:45;;;;;;;2.60;1.90;;;;;;;15.93;73.62;99369.00;4947512;29;20211;-77
2023/06/04 06:27:13;;;;;;;2.73;1.73;;;;;;;16.02;73.11;99371.75;4948816;28;20220;-77
2023/06/04 06:29:41;;;;;;;2.67;2.17;;;;;;;16.01;73.16;99367.34;4950609;29;20255;-77
2023/06/04 06:32:12;;;;;;;3.07;1.70;;;;;;;16.27;72.12;99370.53;4943988;29;20228;-77
2023/06/04 06:34:41;;;;;;;4.80;1.80;;;;;;;16.46;70.34;99369.84;4952405;29;20197;-77
2023/06/04 06:37:09;;;;;;;3.40;1.80;;;;;;;16.69;69.13;99370.56;4954736;29;20641;-77
2023/06/04 06:39:38;;;;;;;3.43;1.80;;;;;;;16.76;65.72;99370.88;4966610;28;20271;-77
2023/06/04 06:42:06;;;;;;;5.87;2.13;;;;;;;16.75;66.80;99370.03;5032161;28;20228;-77
2023/06/04 06:44:35;;;;;;;3.00;1.90;;;;;;;17.14;62.83;99378.25;5024964;28;20206;-77
2023/06/04 06:47:03;;;;;;;4.50;1.97;;;;;;;16.96;59.52;99378.03;5030574;28;20204;-77
2023/06/04 06:49:33;;;;;;;2.80;1.77;;;;;;;17.10;57.17;99385.72;5023260;28;20682;-76
2023/06/04 06:52:01;;;;;;;3.27;1.57;;;;;;;17.24;55.68;99392.53;5026714;28;20253;-77
2023/06/04 06:54:30;;;;;;;3.77;1.80;;;;;;;17.45;54.56;99390.63;5031793;28;20202;-78
2023/06/04 06:56:58;;;;;;;2.57;1.70;;;;;;;17.49;55.83;99380.53;5028394;28;20525;-77
2023/06/04 06:59:26;;;;;;;3.90;1.70;;;;;;;17.60;54.98;99388.44;5024704;28;20285;-77
2023/06/04 07:01:55;;;;;;;4.53;1.60;;;;;;;17.73;52.94;99394.41;5025521;28;20205;-77
2023/06/04 07:04:25;;;;;;;3.47;1.70;;;;;;;17.71;52.96;99384.81;5025748;28;20198;-78
2023/06/04 07:06:55;;;;;;;2.30;1.80;;;;;;;17.59;53.20;99391.25;5024580;28;20209;-78
2023/06/04 07:09:24;;;;;;;3.77;1.63;;;;;;;17.63;53.51;99381.94;5034407;28;20197;-77
2023/06/04 07:11:52;;;;;;;2.43;1.63;;;;;;;17.87;52.56;99389.66;5031336;28;20624;-77
2023/06/04 07:14:21;;;;;;;2.10;1.57;;;;;;;18.16;50.73;99387.84;5025403;28;20285;-77
2023/06/04 07:16:50;;;;;;;3.40;1.70;;;;;;;18.13;50.85;99389.94;5029997;28;20196;-77
2023/06/04 07:19:19;;;;;;;2.73;1.40;;;;;;;18.39;50.34;99385.72;5024048;28;20197;-77
2023/06/04 07:21:47;;;;;;;2.03;1.50;;;;;;;18.49;48.38;99391.06;5026699;28;20560;-77
2023/06/04 07:24:17;;;;;;;2.40;1.63;;;;;;;18.49;47.87;99388.38;5027619;28;20193;-77
2023/06/04 07:26:45;;;;;;;2.70;1.83;;;;;;;18.46;48.47;99391.38;5031117;28;20228;-77
2023/06/04 07:29:15;;;;;;;4.77;1.73;;;;;;;18.72;47.45;99388.94;4948428;28;20207;-77
2023/06/04 07:31:44;;;;;;;2.87;1.97;;;;;;;18.79;48.45;99388.22;4946414;28;20208;-77
2023/06/04 07:34:12;;;;;;;2.08;1.60;;;;;;;18.82;48.11;99379.06;4945098;28;20275;-77
2023/06/04 07:36:40;;;;;;;4.27;1.60;;;;;;;18.76;47.94;99388.53;4951077;28;20302;-77
2023/06/04 07:39:08;;;;;;;3.43;1.60;;;;;;;18.70;48.54;99389.09;4950278;28;20204;-77
2023/06/04 07:41:39;;;;;;;3.10;1.67;;;;;;;18.82;48.04;99387.13;4947418;29;20236;-77
2023/06/04 07:44:07;;;;;;;1.92;1.60;;;;;;;18.91;47.90;99388.91;4950309;28;20215;-77
2023/06/04 07:46:35;;;;;;;3.40;1.77;;;;;;;19.19;47.24;99386.28;4957574;28;20676;-77
2023/06/04 07:49:04;;;;;;;3.43;1.97;;;;;;;19.31;47.48;99387.78;5023513;28;20205;-77
2023/06/04 07:51:34;;;;;;;5.23;1.80;;;;;;;19.33;46.75;99389.34;5029860;28;20229;-77
2023/06/04 07:54:03;;;;;;;2.20;1.80;;;;;;;19.50;47.52;99390.38;5027319;28;20222;-77
2023/06/04 07:56:31;;;;;;;4.50;1.63;;;;;;;19.54;46.74;99396.28;5023859;28;20200;-78
2023/06/04 07:59:01;;;;;;;2.80;1.77;;;;;;;19.59;45.07;99381.47;5020743;28;20201;-77
2023/06/04 08:01:29;;;;;;;4.20;1.80;;;;;;;19.95;43.27;99384.19;5028553;28;20243;-77
2023/06/04 08:03:59;;;;;;;3.05;1.58;;;;;;;19.78;43.50;99396.59;5027137;28;20194;-77
2023/06/04 08:06:28;;;;;;;2.90;1.95;;;;;;;19.90;43.96;99394.56;5033308;28;20208;-78
2023/06/04 08:08:56;;;;;;;5.30;1.83;;;;;;;20.10;44.65;99390.75;5025342;28;20202;-78
2023/06/04 08:11:24;;;;;;;2.38;1.77;;;;;;;20.29;44.85;99395.13;5022262;28;20212;-77
2023/06/04 08:13:53;;;;;;;2.30;1.70;;;;;;;20.15;44.00;99392.97;5027942;28;20308;-77
2023/06/04 08:16:23;;;;;;;3.22;2.10;;;;;;;20.33;45.04;99392.97;5028200;28;20280;-77
2023/06/04 08:18:51;;;;;;;2.73;1.97;;;;;;;20.29;44.63;99395.97;5030350;28;20229;-78
2023/06/04 08:21:27;;;;;;;2.53;1.80;;;;;;;20.62;43.07;99390.88;5030734;28;20201;-77
2023/06/04 08:23:55;;;;;;;6.80;2.30;;;;;;;20.55;42.30;99387.97;5027352;28;20200;-78
2023/06/04 08:26:24;;;;;;;3.07;2.23;;;;;;;20.82;41.77;99392.38;5029384;28;20283;-77
2023/06/04 08:28:53;;;;;;;4.97;2.70;;;;;;;20.85;40.32;99391.22;5028859;28;20198;-77
2023/06/04 08:31:26;;;;;;;3.33;2.13;;;;;;;21.10;40.48;99379.59;5024913;28;20202;-78
2023/06/04 08:33:54;;;;;;;4.57;2.10;;;;;;;21.12;40.99;99385.66;5024882;28;20228;-78
2023/06/04 08:36:23;;;;;;;6.10;4.35;;;;;;;21.17;39.58;99389.72;5027447;28;20204;-78
2023/06/04 08:38:52;;;;;;;3.80;3.45;;;;;;;21.35;39.82;99393.22;5026686;28;20217;-78
2023/06/04 08:41:27;;;;;;;3.80;2.92;;;;;;;21.48;37.06;99395.47;5023955;28;20657;-78
2023/06/04 08:43:59;;;;;;;4.75;3.60;;;;;;;21.51;37.25;99400.53;5022645;28;20197;-77
2023/06/04 08:46:32;;;;;;;4.75;3.80;;;;;;;21.42;36.73;99405.03;5027579;28;20198;-78
2023/06/04 08:49:02;;;;;;;3.95;2.50;;;;;;;21.36;37.20;99405.69;5024257;28;20208;-78
2023/06/04 08:51:36;;;;;;;2.60;2.40;;;;;;;21.46;36.78;99400.19;5029056;28;20205;-77
2023/06/04 08:54:07;;;;;;;3.97;3.40;;;;;;;21.58;36.91;99401.56;5024271;28;20221;-77
2023/06/04 08:56:35;;;;;;;3.47;3.05;;;;;;;21.74;37.76;99404.34;5027427;28;20205;-78
2023/06/04 08:59:06;;;;;;;3.45;2.60;;;;;;;21.80;37.17;99397.44;5029895;28;20217;-78
2023/06/04 09:01:37;;;;;;;2.95;2.60;;;;;;;22.00;36.31;99394.31;5026073;28;20201;-77
2023/06/04 09:04:07;;;;;;;3.17;2.30;;;;;;;21.87;35.68;99393.91;5032502;28;20194;-77
2023/06/04 09:06:41;;;;;;;3.92;2.90;;;;;;;21.84;36.17;99393.41;5027402;28;20201;-78
2023/06/04 09:09:12;;;;;;;3.67;2.28;;;;;;;22.04;34.58;99389.41;5025444;28;20197;-77
2023/06/04 09:11:46;;;;;;;4.05;2.40;;;;;;;22.24;34.26;99392.69;5027508;28;20204;-78
2023/06/04 09:14:17;;;;;;;4.35;2.38;;;;;;;22.18;33.37;99396.03;5025758;28;20228;-78
2023/06/04 09:16:49;;;;;;;3.25;2.40;;;;;;;22.39;32.87;99393.72;5032146;28;20189;-77
2023/06/04 09:19:18;;;;;;;4.38;2.40;;;;;;;22.08;33.21;99404.28;4977798;28;20190;-78
2023/06/04 09:21:50;;;;;;;3.45;2.40;;;;;;;22.45;31.99;99406.53;5030893;28;20197;-78
2023/06/04 09:24:19;;;;;;;4.13;2.78;;;;;;;22.91;32.64;99396.06;5034140;28;20556;-77
2023/06/04 09:26:47;;;;;;;2.83;2.53;;;;;;;22.48;32.97;99399.94;5029703;28;20229;-77
2023/06/04 09:29:15;;;;;;;4.22;2.70;;;;;;;22.44;33.97;99401.28;5030873;28;20198;-78
2023/06/04 09:31:58;;;;;;;4.03;2.58;;;;;;;22.66;33.62;99407.88;5032274;28;20232;-77
2023/06/04 09:34:30;;;;;;;4.22;2.80;;;;;;;23.05;33.88;99402.63;5036291;28;20276;-76
2023/06/04 09:37:00;;;;;;;3.50;2.50;;;;;;;23.16;32.72;99404.94;5032445;28;20197;-77
2023/06/04 09:39:28;;;;;;;2.72;2.53;;;;;;;22.88;32.66;99407.22;5027274;28;20204;-78
2023/06/04 09:42:01;;;;;;;3.10;2.80;;;;;;;23.08;32.11;99403.13;5027074;28;20215;-77
2023/06/04 09:44:31;;;;;;;3.28;2.70;;;;;;;23.34;32.56;99396.63;5030802;28;20293;-78
2023/06/04 09:47:01;;;;;;;4.50;2.90;;;;;;;23.33;32.11;99393.09;5026700;28;20285;-78
2023/06/04 09:49:30;;;;;;;3.40;2.72;;;;;;;23.39;30.96;99392.41;5023488;28;20209;-78
2023/06/04 09:51:58;;;;;;;3.95;2.53;;;;;;;23.43;32.22;99395.59;5029419;28;20212;-78
2023/06/04 09:54:37;;;;;;;3.95;2.70;;;;;;;23.48;31.59;99395.91;5031876;28;20228;-77
2023/06/04 09:57:17;;;;;;;3.90;3.03;;;;;;;23.33;32.22;99397.66;5033150;28;20204;-77
2023/06/04 09:59:51;;;;;;;3.67;2.80;;;;;;;23.68;31.44;99397.22;5030330;28;20185;-78
2023/06/04 10:02:22;;;;;;;4.03;2.55;;;;;;;23.60;30.88;99388.28;5034513;28;20202;-78
2023/06/04 10:04:54;;;;;;;6.55;2.92;;;;;;;23.72;31.47;99388.72;5030161;28;20296;-78
2023/06/04 10:07:24;;;;;;;7.22;2.90;;;;;;;23.84;32.13;99393.59;5028754;28;20211;-78
2023/06/04 10:09:53;;;;;;;3.35;2.45;;;;;;;24.01;30.79;99398.88;5028679;28;20205;-77
2023/06/04 10:12:26;;;;;;;6.07;2.78;;;;;;;24.01;30.70;99397.03;5027345;28;20209;-78
2023/06/04 10:15:00;;;;;;;3.97;2.67;;;;;;;23.95;30.51;99393.19;5028923;28;20221;-78
2023/06/04 10:17:31;;;;;;;3.47;2.70;;;;;;;24.40;30.65;99387.97;5025117;28;20276;-78
2023/06/04 10:20:04;;;;;;;16.10;3.10;;;;;;;24.53;30.16;99382.81;5031135;28;20278;-78
2023/06/04 10:22:33;;;;;;;3.30;2.70;;;;;;;24.01;30.74;99383.47;5028325;28;20640;-77
2023/06/04 10:25:03;;;;;;;4.70;2.90;;;;;;;24.08;31.15;99387.16;5029735;28;20205;-78
2023/06/04 10:27:31;;;;;;;3.83;2.95;;;;;;;24.41;31.10;99389.66;5021966;28;20257;-78
2023/06/04 10:30:01;;;;;;;4.68;2.63;;;;;;;24.36;31.11;99387.50;5031438;28;20641;-78
2023/06/04 10:32:32;;;;;;;4.32;2.50;;;;;;;24.81;30.08;99380.38;5023919;28;20225;-77
2023/06/04 10:35:06;;;;;;;3.70;2.50;;;;;;;24.66;29.44;99388.44;5031385;28;20217;-77
2023/06/04 10:37:35;;;;;;;3.22;2.50;;;;;;;25.17;28.95;99374.25;5029290;28;20194;-78
2023/06/04 10:40:05;;;;;;;3.58;2.60;;;;;;;24.90;30.47;99384.69;4971548;28;20188;-78
2023/06/04 10:42:40;;;;;;;3.47;2.47;;;;;;;25.26;29.78;99381.25;4967048;28;20195;-78
2023/06/04 10:45:09;;;;;;;2.60;2.40;;;;;;;25.63;28.89;99386.56;4972873;28;20662;-78
2023/06/04 10:47:40;;;;;;;2.38;2.17;;;;;;;25.65;28.98;99380.94;4974118;28;20207;-78
2023/06/04 10:50:11;;;;;;;4.07;2.78;;;;;;;25.41;29.57;99376.69;4968980;28;20215;-78
2023/06/04 10:52:53;;;;;;;3.65;2.28;;;;;;;25.60;28.97;99380.69;4971265;28;20225;-78
2023/06/04 10:55:22;;;;;;;4.15;2.67;;;;;;;25.26;29.57;99379.38;4966243;28;20223;-77
2023/06/04 10:57:56;;;;;;;3.80;2.67;;;;;;;25.92;28.94;99377.56;4986536;28;20209;-77
2023/06/04 11:00:36;;;;;;;4.53;2.63;;;;;;;26.06;27.63;99375.84;5027049;28;20270;-77
2023/06/04 11:03:10;;;;;;;5.47;2.78;;;;;;;25.91;28.08;99372.31;5024674;28;20202;-78
2023/06/04 11:05:40;;;;;;;5.13;2.80;;;;;;;26.30;27.93;99368.34;5031688;28;20730;-77
2023/06/04 11:08:10;;;;;;;5.63;2.92;;;;;;;26.24;27.48;99378.94;5023388;28;20201;-79
2023/06/04 11:10:42;;;;;;;5.53;3.30;;;;;;;26.42;27.16;99369.53;5031661;28;20209;-78
2023/06/04 11:13:10;;;;;;;3.85;2.60;;;;;;;26.55;26.75;99372.38;5029457;28;20229;-78
2023/06/04 11:15:42;;;;;;;3.45;2.70;;;;;;;26.39;25.80;99364.50;5024443;28;20213;-77
2023/06/04 11:18:16;;;;;;;5.07;3.15;;;;;;;26.04;26.89;99374.34;4970862;28;20359;-78
2023/06/04 11:20:48;;;;;;;7.93;3.63;;;;;;;26.29;27.29;99367.50;4968338;28;20200;-78
2023/06/04 11:23:17;;;;;;;4.93;3.03;;;;;;;26.69;26.60;99363.28;4963255;28;20215;-78
2023/06/04 11:25:46;;;;;;;5.20;2.90;;;;;;;26.65;27.30;99355.75;4967125;28;20196;-78
2023/06/04 11:28:18;;;;;;;7.95;3.92;;;;;;;26.81;28.42;99353.53;4965871;28;20275;-78
2023/06/04 11:30:57;;;;;;;5.35;3.50;;;;;;;26.84;27.53;99351.50;4932281;29;20653;-78
2023/06/04 11:33:27;;;;;;;3.53;3.22;;;;;;;27.16;26.68;99352.78;4928858;29;20205;-78
2023/06/04 11:35:56;;;;;;;3.70;2.92;;;;;;;26.84;27.57;99354.22;4922840;29;20711;-78
2023/06/04 11:38:24;;;;;;;4.35;2.78;;;;;;;27.13;27.16;99354.03;4925130;29;20225;-78
2023/06/04 11:41:00;;;;;;;3.83;3.30;;;;;;;27.64;26.51;99353.63;4926131;29;20224;-78
2023/06/04 11:43:30;;;;;;;5.28;3.40;;;;;;;28.11;25.70;99347.31;4927049;29;20358;-78
2023/06/04 11:45:59;;;;;;;2.65;2.40;;;;;;;27.37;25.70;99356.22;4928230;29;20208;-78
2023/06/04 11:48:31;;;;;;;3.55;2.92;;;;;;;27.58;25.61;99357.16;4950297;28;20587;-78